createdAt,value
2022-08-27T00:01:32.215Z,99639.81
2022-08-27T00:06:24.658Z,99642.25
2022-08-27T00:11:18.863Z,99638.88
2022-08-27T00:16:12.590Z,99641.56
2022-08-27T00:21:05.021Z,99648.63
2022-08-27T00:25:59.529Z,99642.00
2022-08-27T00:30:51.141Z,99628.31
2022-08-27T00:35:42.853Z,99623.69
2022-08-27T00:40:34.756Z,99628.31
2022-08-27T00:45:26.744Z,99619.31
2022-08-27T00:50:28.121Z,99620.13
2022-08-27T00:55:24.574Z,99619.00
2022-08-27T01:00:18.582Z,99624.09
2022-08-27T01:05:15.345Z,99618.31
2022-08-27T01:10:11.069Z,99617.16
2022-08-27T01:15:07.399Z,99621.47
2022-08-27T01:20:08.957Z,99627.97
2022-08-27T01:25:06.112Z,99624.94
2022-08-27T01:29:58.947Z,99621.06
2022-08-27T01:34:51.458Z,99621.56
2022-08-27T01:39:44.674Z,99620.19
2022-08-27T01:44:51.069Z,99625.09
2022-08-27T01:49:42.864Z,99616.78
2022-08-27T01:54:34.861Z,99624.91
2022-08-27T01:59:39.115Z,99621.03
2022-08-27T02:04:31.977Z,99622.88
2022-08-27T02:09:23.986Z,99623.06
2022-08-27T02:14:15.781Z,99615.88
2022-08-27T02:19:07.571Z,99623.50
2022-08-27T02:24:03.150Z,99622.59
2022-08-27T02:28:55.401Z,99618.13
2022-08-27T02:33:47.234Z,99626.25
2022-08-27T02:38:38.972Z,99621.88
2022-08-27T02:43:31.561Z,99614.94
2022-08-27T02:48:24.733Z,99610.56
2022-08-27T02:53:17.029Z,99618.50
2022-08-27T02:58:09.788Z,99612.44
2022-08-27T03:03:02.627Z,99598.47
2022-08-27T03:07:54.374Z,99602.00
2022-08-27T03:12:46.284Z,99605.84
2022-08-27T03:17:56.528Z,99607.97
2022-08-27T03:22:48.240Z,99606.59
2022-08-27T03:27:39.894Z,99599.16
2022-08-27T03:32:31.966Z,99591.09
2022-08-27T03:37:23.622Z,99598.75
2022-08-27T03:42:15.430Z,99594.84
2022-08-27T03:47:07.195Z,99599.22
2022-08-27T03:51:59.156Z,99604.38
2022-08-27T03:56:51.533Z,99604.94
2022-08-27T04:01:44.870Z,99599.16
2022-08-27T04:06:36.883Z,99613.81
2022-08-27T04:11:29.587Z,99608.59
2022-08-27T04:16:21.832Z,99604.22
2022-08-27T04:21:15.438Z,99608.00
2022-08-27T04:26:09.097Z,99607.69
2022-08-27T04:31:02.909Z,99602.72
2022-08-27T04:36:02.814Z,99596.59
2022-08-27T04:41:13.853Z,99593.50
2022-08-27T04:46:06.220Z,99583.31
2022-08-27T04:50:58.065Z,99591.75
2022-08-27T04:55:52.648Z,99593.91
2022-08-27T05:00:48.513Z,99591.19
2022-08-27T05:05:41.923Z,99594.06
2022-08-27T05:10:44.117Z,99588.59
2022-08-27T05:15:36.111Z,99596.69
2022-08-27T05:20:29.716Z,99601.34
2022-08-27T05:25:22.138Z,99602.66
2022-08-27T05:30:13.973Z,99600.16
2022-08-27T05:35:06.561Z,99616.53
2022-08-27T05:39:58.331Z,99616.78
2022-08-27T05:49:41.787Z,99617.34
2022-08-27T05:54:33.887Z,99621.19
2022-08-27T05:59:43.812Z,99632.91
2022-08-27T06:04:36.838Z,99628.94
2022-08-27T06:09:29.403Z,99632.94
2022-08-27T06:14:21.487Z,99631.50
2022-08-27T06:19:13.405Z,99641.44
2022-08-27T06:24:05.172Z,99643.84
2022-08-27T06:28:58.253Z,99635.97
2022-08-27T06:33:51.956Z,99640.50
2022-08-27T06:38:43.815Z,99637.19
2022-08-27T06:43:38.912Z,99649.81
2022-08-27T06:48:30.511Z,99651.25
2022-08-27T06:53:25.705Z,99651.03
2022-08-27T06:58:19.341Z,99660.88
2022-08-27T07:03:12.112Z,99667.19
2022-08-27T07:08:05.045Z,99665.00
2022-08-27T07:12:56.810Z,99667.13
2022-08-27T07:17:48.614Z,99671.25
2022-08-27T07:22:41.207Z,99684.00
2022-08-27T07:27:32.873Z,99696.03
2022-08-27T07:32:30.588Z,99695.78
2022-08-27T07:37:23.610Z,99697.16
2022-08-27T07:42:35.999Z,99697.97
2022-08-27T07:47:27.668Z,99698.22
2022-08-27T07:52:21.678Z,99711.16
2022-08-27T07:57:16.331Z,99698.78
2022-08-27T08:02:08.024Z,99699.16
2022-08-27T08:06:59.794Z,99708.91
2022-08-27T08:11:53.332Z,99708.34
2022-08-27T08:16:45.289Z,99711.56
2022-08-27T08:21:38.694Z,99709.50
2022-08-27T08:26:30.431Z,99710.91
2022-08-27T08:31:24.125Z,99703.41
2022-08-27T08:36:17.515Z,99711.78
2022-08-27T08:41:27.882Z,99707.38
2022-08-27T08:46:37.633Z,99721.91
2022-08-27T08:51:40.243Z,99721.97
2022-08-27T08:56:43.727Z,99720.16
2022-08-27T09:01:35.539Z,99722.63
2022-08-27T09:06:32.146Z,99723.47
2022-08-27T09:11:40.272Z,99727.19
2022-08-27T09:16:32.683Z,99719.72
2022-08-27T09:21:36.546Z,99723.69
2022-08-27T09:26:31.740Z,99733.59
2022-08-27T09:31:23.601Z,99728.06
2022-08-27T09:36:21.614Z,99736.97
2022-08-27T09:41:22.330Z,99728.31
2022-08-27T09:46:21.387Z,99727.50
2022-08-27T09:51:21.931Z,99732.03
2022-08-27T09:56:22.767Z,99733.19
2022-08-27T10:01:22.401Z,99733.47
2022-08-27T10:06:14.132Z,99736.16
2022-08-27T10:11:14.494Z,99734.66
2022-08-27T10:16:35.185Z,99719.41
2022-08-27T10:21:52.938Z,99717.09
2022-08-27T10:26:51.521Z,99717.13
2022-08-27T10:32:08.112Z,99716.00
2022-08-27T10:37:19.921Z,99716.94
2022-08-27T10:42:26.874Z,99709.53
2022-08-27T10:47:37.321Z,99702.78
2022-08-27T10:52:44.898Z,99706.94
2022-08-27T10:58:00.808Z,99703.06
2022-08-27T11:02:58.689Z,99697.44
2022-08-27T11:07:56.348Z,99691.06
2022-08-27T11:12:51.847Z,99687.25
2022-08-27T11:18:01.864Z,99695.56
2022-08-27T11:23:09.662Z,99687.41
2022-08-27T11:28:04.735Z,99672.53
2022-08-27T11:33:13.669Z,99689.09
2022-08-27T11:38:27.514Z,99681.56
2022-08-27T11:43:24.817Z,99674.28
2022-08-27T11:48:16.445Z,99677.41
2022-08-27T11:53:08.735Z,99675.00
2022-08-27T11:58:18.161Z,99668.28
2022-08-27T12:03:19.059Z,99671.41
2022-08-27T12:08:13.701Z,99668.81
2022-08-27T12:13:08.703Z,99666.31
2022-08-27T12:18:32.646Z,99658.13
2022-08-27T12:23:55.350Z,99659.47
2022-08-27T12:28:47.453Z,99655.34
2022-08-27T12:33:46.125Z,99659.13
2022-08-27T12:38:53.335Z,99657.81
2022-08-27T12:43:45.773Z,99656.19
2022-08-27T12:48:42.186Z,99659.16
2022-08-27T12:54:10.910Z,99663.69
2022-08-27T12:59:10.928Z,99669.44
2022-08-27T13:04:05.501Z,99663.53
2022-08-27T13:09:00.161Z,99667.78
2022-08-27T13:13:53.012Z,99663.31
2022-08-27T13:18:50.616Z,99662.47
2022-08-27T13:23:49.067Z,99657.00
2022-08-27T13:28:43.222Z,99654.00
2022-08-27T13:33:37.393Z,99651.78
2022-08-27T13:38:32.061Z,99647.59
2022-08-27T13:43:59.254Z,99647.00
2022-08-27T13:48:54.847Z,99643.38
2022-08-27T13:54:07.571Z,99637.00
2022-08-27T13:59:21.381Z,99640.41
2022-08-27T14:04:23.478Z,99626.13
2022-08-27T14:09:27.570Z,99625.47
2022-08-27T14:14:19.298Z,99619.16
2022-08-27T14:19:12.342Z,99622.00
2022-08-27T14:24:04.427Z,99622.53
2022-08-27T14:28:56.550Z,99627.31
2022-08-27T14:33:48.935Z,99622.28
2022-08-27T14:38:44.870Z,99613.28
2022-08-27T14:43:38.185Z,99620.22
2022-08-27T14:48:33.237Z,99627.81
2022-08-27T14:53:26.446Z,99628.22
2022-08-27T14:58:18.185Z,99626.72
2022-08-27T15:03:10.938Z,99630.66
2022-08-27T15:08:04.290Z,99627.34
2022-08-27T15:12:56.396Z,99631.78
2022-08-27T15:17:48.277Z,99638.94
2022-08-27T15:22:44.188Z,99637.81
2022-08-27T15:27:39.133Z,99630.31
2022-08-27T15:32:33.445Z,99630.63
2022-08-27T15:37:25.627Z,99635.44
2022-08-27T15:42:17.513Z,99635.03
2022-08-27T15:47:09.262Z,99633.91
2022-08-27T15:52:01.031Z,99630.28
2022-08-27T15:56:52.697Z,99627.94
2022-08-27T16:01:44.883Z,99630.69
2022-08-27T16:06:36.880Z,99626.19
2022-08-27T16:11:28.815Z,99625.34
2022-08-27T16:16:25.413Z,99629.16
2022-08-27T16:21:17.339Z,99629.44
2022-08-27T16:26:08.981Z,99636.78
2022-08-27T16:31:01.630Z,99638.44
2022-08-27T16:35:54.595Z,99631.25
2022-08-27T16:40:54.789Z,99636.09
2022-08-27T16:45:47.038Z,99627.44
2022-08-27T16:50:39.732Z,99630.13
2022-08-27T16:55:32.423Z,99630.75
2022-08-27T17:00:24.382Z,99629.50
2022-08-27T17:05:33.881Z,99628.69
2022-08-27T17:10:31.837Z,99632.91
2022-08-27T17:15:23.560Z,99625.66
2022-08-27T17:20:15.511Z,99625.03
2022-08-27T17:25:08.214Z,99636.94
2022-08-27T17:29:59.956Z,99625.41
2022-08-27T17:34:51.683Z,99630.25
2022-08-27T17:39:43.387Z,99630.03
2022-08-27T17:44:37.189Z,99630.25
2022-08-27T17:49:31.098Z,99635.16
2022-08-27T17:54:40.250Z,99634.75
2022-08-27T17:59:32.037Z,99642.72
2022-08-27T18:04:24.104Z,99636.16
2022-08-27T18:09:16.127Z,99636.97
2022-08-27T18:14:08.240Z,99637.25
2022-08-27T18:19:00.282Z,99639.34
2022-08-27T18:23:54.547Z,99643.28
2022-08-27T18:28:47.243Z,99654.88
2022-08-27T18:33:39.794Z,99656.22
2022-08-27T18:38:31.633Z,99659.53
2022-08-27T18:43:29.719Z,99665.28
2022-08-27T18:48:23.288Z,99669.81
2022-08-27T18:53:17.548Z,99668.81
2022-08-27T18:58:09.509Z,99673.09
2022-08-27T19:03:01.850Z,99673.53
2022-08-27T19:07:53.716Z,99686.25
2022-08-27T19:12:46.893Z,99694.88
2022-08-27T19:17:40.261Z,99701.28
2022-08-27T19:22:32.756Z,99709.09
2022-08-27T19:27:26.662Z,99711.66
2022-08-27T19:32:18.909Z,99710.03
2022-08-27T19:37:16.800Z,99713.47
2022-08-27T19:42:08.558Z,99717.97
2022-08-27T19:47:00.504Z,99719.13
2022-08-27T19:51:52.842Z,99727.16
2022-08-27T19:56:44.634Z,99721.72
2022-08-27T20:01:36.662Z,99729.50
2022-08-27T20:06:31.463Z,99729.06
2022-08-27T20:11:23.575Z,99739.88
2022-08-27T20:16:15.326Z,99733.88
2022-08-27T20:21:07.274Z,99743.53
2022-08-27T20:26:01.250Z,99738.00
2022-08-27T20:30:53.451Z,99747.44
2022-08-27T20:35:45.274Z,99742.50
2022-08-27T20:40:37.039Z,99746.34
2022-08-27T20:45:30.202Z,99761.78
2022-08-27T20:50:25.040Z,99770.03
2022-08-27T20:55:17.752Z,99765.63
2022-08-27T21:00:22.360Z,99769.72
2022-08-27T21:05:16.508Z,99774.97
2022-08-27T21:10:09.085Z,99777.69
2022-08-27T21:15:04.093Z,99782.66
2022-08-27T21:19:56.111Z,99784.00
2022-08-27T21:24:47.770Z,99791.13
2022-08-27T21:29:40.761Z,99789.38
2022-08-27T21:34:32.505Z,99792.66
2022-08-27T21:39:24.407Z,99795.13
2022-08-27T21:44:16.266Z,99786.31
2022-08-27T21:49:07.928Z,99790.13
2022-08-27T21:54:00.134Z,99790.66
2022-08-27T21:58:52.292Z,99805.41
2022-08-27T22:03:50.738Z,99804.25
2022-08-27T22:08:43.695Z,99807.22
2022-08-27T22:13:36.048Z,99814.03
2022-08-27T22:18:28.219Z,99818.66
2022-08-27T22:23:21.511Z,99818.88
2022-08-27T22:28:14.272Z,99825.41
2022-08-27T22:33:06.184Z,99820.44
2022-08-27T22:37:58.474Z,99826.97
2022-08-27T22:42:50.965Z,99822.53
2022-08-27T22:47:42.776Z,99803.00
2022-08-27T22:52:36.203Z,99814.19
2022-08-27T22:57:27.867Z,99819.06
2022-08-27T23:02:19.498Z,99812.44
2022-08-27T23:07:11.218Z,99818.94
2022-08-27T23:12:04.387Z,99824.41
2022-08-27T23:16:56.467Z,99818.03
2022-08-27T23:21:48.522Z,99816.06
2022-08-27T23:26:58.797Z,99828.06
2022-08-27T23:31:51.441Z,99829.69
2022-08-27T23:36:43.116Z,99820.31
2022-08-27T23:41:35.533Z,99836.75
2022-08-27T23:46:27.534Z,99828.22
2022-08-27T23:51:19.330Z,99826.00
2022-08-27T23:56:11.301Z,99818.56
